Temp: 9.6°C   Baro: 1017.5mb
  Wind: 6.0mph   Dir: W (277°)
  Rain: 0.0mm (0.0mm/hr)
  Sun: 229W/m2  Humidity: 68%

Historic data

Bath Spa Weather Station Historical Data
Daily Summary for February 29, 2024 Units:  English    Metric   Both
Daily Weekly Monthly Yearly Custom
  High: Low: Average:
Temperature: 49.8 °F 37.3 °F 45.1 °F
Dew Point: 47.3 °F 33.8 °F 41.9 °F
Humidity: 95% 79% 89%
Wind Speed: 11.8mph 0mph 4.2mph
Wind Gust: 22mph - -
Wind- - WSW
Pressure: 29.81 in 29.56 in -
Precipitation: 0.13 in    
Historical Graphs
 
 
Tabular Data for February 29, 2024
Time Temperature Dew Point Pressure Wind Wind Speed Wind Gust Humidity Rainfall Rate (Hourly) solar
00:09 49.8 °F 46.9 °F 29.81 in South 6 mph 17 mph 90% 0.00 in 0 W/m2
00:14 49.6 °F 46.8 °F 29.81 in SSW 5.9 mph 10 mph 90% 0.00 in 0 W/m2
00:19 49.6 °F 46.8 °F 29.80 in South 4.9 mph 15 mph 90% 0.00 in 0 W/m2
00:24 49.8 °F 46.9 °F 29.81 in SW 6.6 mph 13 mph 90% 0.00 in 0 W/m2
00:29 49.7 °F 46.8 °F 29.80 in SW 7.1 mph 16 mph 90% 0.00 in 0 W/m2
00:34 49.7 °F 46.9 °F 29.80 in SSW 7.4 mph 18 mph 90% 0.00 in 0 W/m2
00:39 49.8 °F 46.9 °F 29.80 in SW 7.8 mph 18 mph 90% 0.00 in 0 W/m2
00:44 49.8 °F 46.9 °F 29.80 in South 11.8 mph 18 mph 90% 0.00 in 0 W/m2
00:49 49.8 °F 46.9 °F 29.79 in SSW 7.8 mph 14 mph 90% 0.00 in 0 W/m2
00:54 49.8 °F 46.9 °F 29.79 in SSW 10.5 mph 18 mph 90% 0.00 in 0 W/m2
00:59 49.8 °F 46.9 °F 29.79 in SSW 11.4 mph 22 mph 90% 0.00 in 0 W/m2
01:04 49.8 °F 46.9 °F 29.79 in SSW 8.4 mph 16 mph 90% 0.00 in 0 W/m2
01:09 49.8 °F 46.9 °F 29.80 in SSW 7.5 mph 20 mph 90% 0.00 in 0 W/m2
01:14 49.8 °F 46.9 °F 29.79 in SSW 9.3 mph 17 mph 90% 0.00 in 0 W/m2
01:19 49.8 °F 46.9 °F 29.79 in SW 7.9 mph 17 mph 90% 0.00 in 0 W/m2
01:24 49.8 °F 47 °F 29.79 in SSW 9.2 mph 17 mph 90.2% 0.00 in 0 W/m2
01:29 49.8 °F 46.9 °F 29.79 in SSW 6.8 mph 12 mph 90% 0.00 in 0 W/m2
01:34 49.8 °F 47 °F 29.79 in SSW 7.4 mph 13 mph 90.2% 0.00 in 0 W/m2
01:39 49.8 °F 47.3 °F 29.79 in SSW 5.3 mph 14 mph 91% 0.00 in 0 W/m2
01:44 49.8 °F 47.3 °F 29.78 in SW 4.9 mph 10 mph 91% 0.00 in 0 W/m2
01:49 49.8 °F 47.3 °F 29.78 in SW 8.2 mph 13 mph 91% 0.00 in 0 W/m2
01:54 49.6 °F 47.1 °F 29.78 in SSW 5 mph 17 mph 91% 0.00 in 0 W/m2
01:59 49.6 °F 47.1 °F 29.78 in SSW 2.9 mph 10 mph 91% 0.00 in 0 W/m2
02:04 49.5 °F 46.9 °F 29.78 in SSW 3.3 mph 12 mph 91% 0.00 in 0 W/m2
02:09 49.5 °F 46.9 °F 29.77 in SSW 5.7 mph 11 mph 91% 0.00 in 0 W/m2
02:14 49.4 °F 47 °F 29.77 in SSW 5.1 mph 15 mph 91.4% 0.00 in 0 W/m2
02:19 49.3 °F 47.1 °F 29.77 in SSW 3.6 mph 10 mph 92% 0.00 in 0 W/m2
02:24 49.3 °F 47.1 °F 29.76 in SW 4.7 mph 10 mph 92% 0.00 in 0 W/m2
02:29 49.3 °F 47.1 °F 29.76 in SSW 3.8 mph 10 mph 92% 0.00 in 0 W/m2
02:34 49.3 °F 47.1 °F 29.76 in SW 7.4 mph 12 mph 92% 0.01 in 0 W/m2
02:39 49.3 °F 47.1 °F 29.76 in SW 5.4 mph 10 mph 92% 0.01 in 0 W/m2
02:44 49.3 °F 47.1 °F 29.75 in SSW 6.2 mph 11 mph 92% 0.01 in 0 W/m2
02:49 49.3 °F 47.1 °F 29.75 in SSW 3.4 mph 9 mph 92% 0.01 in 0 W/m2
02:54 49.3 °F 47.1 °F 29.75 in SSW 4.9 mph 14 mph 92% 0.01 in 0 W/m2
02:59 49.3 °F 47.1 °F 29.75 in SSW 3.6 mph 11 mph 92% 0.01 in 0 W/m2
03:04 49.3 °F 47.3 °F 29.74 in SSW 8.8 mph 13 mph 92.8% 0.01 in 0 W/m2
03:09 49.3 °F 47.2 °F 29.74 in SSW 8.6 mph 15 mph 92.4% 0.01 in 0 W/m2
03:14 49.3 °F 47.1 °F 29.74 in SW 5.6 mph 15 mph 92% 0.01 in 0 W/m2
03:19 49.3 °F 47.1 °F 29.74 in SSW 6 mph 9 mph 92.2% 0.01 in 0 W/m2
03:24 49.3 °F 47.2 °F 29.73 in SSW 5.9 mph 12 mph 92.6% 0.01 in 0 W/m2
03:29 49.4 °F 47.3 °F 29.73 in SSW 7 mph 14 mph 92.6% 0.01 in 0 W/m2
03:34 49.5 °F 47.3 °F 29.73 in SSW 4 mph 11 mph 92% 0.00 in 0 W/m2
03:39 49.5 °F 47.3 °F 29.72 in South 7 mph 12 mph 92% 0.00 in 0 W/m2
03:44 49.5 °F 47.3 °F 29.72 in SSW 6 mph 13 mph 92% 0.00 in 0 W/m2
03:49 49.5 °F 47.3 °F 29.72 in SSW 8 mph 15 mph 92% 0.00 in 0 W/m2
03:54 49.5 °F 47.3 °F 29.72 in SSW 6.3 mph 16 mph 92% 0.00 in 0 W/m2
03:59 49.3 °F 47.1 °F 29.72 in SSW 5.1 mph 11 mph 92% 0.00 in 0 W/m2
04:04 49.3 °F 47.1 °F 29.72 in SSW 5.6 mph 13 mph 92% 0.00 in 0 W/m2
04:09 49.2 °F 47 °F 29.72 in SSW 5.1 mph 8 mph 92% 0.00 in 0 W/m2
04:14 49.1 °F 46.9 °F 29.71 in SSW 4.1 mph 9 mph 92% 0.00 in 0 W/m2
04:19 48.9 °F 46.8 °F 29.71 in South 5.9 mph 11 mph 92% 0.00 in 0 W/m2
04:24 48.9 °F 46.8 °F 29.71 in SSW 3.6 mph 10 mph 92% 0.00 in 0 W/m2
04:29 48.9 °F 46.8 °F 29.71 in SSW 3.6 mph 8 mph 92% 0.00 in 0 W/m2
04:34 48.8 °F 46.8 °F 29.71 in SSW 4.4 mph 11 mph 93% 0.00 in 0 W/m2
04:39 48.8 °F 46.9 °F 29.70 in SSW 2.8 mph 9 mph 93% 0.00 in 0 W/m2
04:44 48.7 °F 46.8 °F 29.70 in SSW 4.9 mph 9 mph 93% 0.01 in 0 W/m2
04:49 48.7 °F 46.8 °F 29.70 in SSW 1.8 mph 6 mph 93% 0.01 in 0 W/m2
04:54 48.7 °F 46.8 °F 29.70 in SSW 3.6 mph 8 mph 93% 0.01 in 0 W/m2
04:59 48.7 °F 46.8 °F 29.70 in SW 5.1 mph 8 mph 93% 0.01 in 0 W/m2
05:04 48.7 °F 46.8 °F 29.70 in SW 6 mph 13 mph 93% 0.01 in 0 W/m2
05:09 48.7 °F 46.8 °F 29.70 in SW 2.7 mph 8 mph 93% 0.01 in 0 W/m2
05:14 48.7 °F 46.8 °F 29.70 in SW 9.8 mph 20 mph 93% 0.01 in 0 W/m2
05:19 48.4 °F 46.4 °F 29.70 in WSW 6.6 mph 16 mph 93% 0.02 in 0 W/m2
05:24 47.8 °F 45.8 °F 29.70 in West 8 mph 16 mph 93% 0.02 in 0 W/m2
05:29 47.6 °F 45.6 °F 29.70 in West 4.4 mph 12 mph 93% 0.02 in 0 W/m2
05:34 47.3 °F 45.3 °F 29.70 in West 5.2 mph 12 mph 93% 0.02 in 0 W/m2
05:39 47.1 °F 45.3 °F 29.70 in West 4.7 mph 10 mph 93.4% 0.02 in 0 W/m2
05:44 46.9 °F 45.3 °F 29.70 in West 4.3 mph 9 mph 94% 0.02 in 0 W/m2
05:49 46.9 °F 45.1 °F 29.70 in WNW 3.3 mph 6 mph 93.6% 0.01 in 0 W/m2
05:54 46.8 °F 45 °F 29.70 in West 5 mph 7 mph 93.8% 0.01 in 0 W/m2
05:59 46.7 °F 45.1 °F 29.70 in WSW 2.8 mph 6 mph 94% 0.01 in 0 W/m2
06:04 46.6 °F 45 °F 29.70 in WSW 2.8 mph 6 mph 94% 0.01 in 0 W/m2
06:09 46.4 °F 44.8 °F 29.69 in WSW 2.6 mph 5 mph 94% 0.01 in 0 W/m2
06:14 46.2 °F 44.6 °F 29.69 in West 3.9 mph 7 mph 94% 0.02 in 0 W/m2
06:19 46.2 °F 44.6 °F 29.69 in West 2.5 mph 6 mph 94% 0.02 in 0 W/m2
06:24 46.1 °F 44.4 °F 29.69 in West 4.2 mph 9 mph 94% 0.02 in 0 W/m2
06:29 45.9 °F 44.2 °F 29.69 in West 4 mph 9 mph 94% 0.02 in 0 W/m2
06:34 45.7 °F 44.1 °F 29.69 in West 4.3 mph 7 mph 94% 0.02 in 0 W/m2
06:39 45.7 °F 44.1 °F 29.69 in West 5.2 mph 7 mph 94% 0.02 in 0 W/m2
06:44 45.5 °F 43.9 °F 29.69 in WSW 5.4 mph 10 mph 94% 0.02 in 0 W/m2
06:49 45.3 °F 43.7 °F 29.70 in WSW 3.9 mph 8 mph 94% 0.02 in 0 W/m2
06:54 45.3 °F 43.7 °F 29.70 in WSW 3.2 mph 7 mph 94% 0.02 in 0 W/m2
06:59 45.3 °F 43.7 °F 29.70 in West 3.7 mph 7 mph 94% 0.02 in 0 W/m2
07:04 45.2 °F 43.6 °F 29.70 in WSW 4.2 mph 8 mph 94% 0.02 in 0 W/m2
07:09 45.1 °F 43.5 °F 29.69 in West 3.7 mph 7 mph 94% 0.02 in 0 W/m2
07:14 45.1 °F 43.5 °F 29.69 in West 3 mph 6 mph 94% 0.02 in 0 W/m2
07:19 45.1 °F 43.5 °F 29.69 in West 3.2 mph 7 mph 94% 0.02 in 7 W/m2
07:24 45.1 °F 43.5 °F 29.69 in West 2.8 mph 5 mph 94% 0.02 in 7 W/m2
07:29 45.1 °F 43.6 °F 29.70 in West 2.1 mph 5 mph 94.2% 0.02 in 7 W/m2
07:34 45.1 °F 43.6 °F 29.69 in West 2.8 mph 5 mph 94.2% 0.02 in 12 W/m2
07:39 45.1 °F 43.5 °F 29.69 in West 2.3 mph 5 mph 94% 0.02 in 16 W/m2
07:44 45.1 °F 43.5 °F 29.69 in West 2.8 mph 5 mph 94% 0.02 in 12 W/m2
07:49 45.1 °F 43.5 °F 29.69 in WSW 2.8 mph 7 mph 94% 0.02 in 26 W/m2
07:54 45.1 °F 43.9 °F 29.69 in WSW 2.4 mph 4 mph 95% 0.02 in 33 W/m2
07:59 45.3 °F 44.1 °F 29.69 in WSW 2.4 mph 4 mph 95% 0.02 in 30 W/m2
08:04 45.3 °F 44.1 °F 29.70 in WSW 3.4 mph 5 mph 95% 0.02 in 30 W/m2
08:09 45.3 °F 44.1 °F 29.69 in WSW 2.1 mph 5 mph 95% 0.02 in 30 W/m2
08:14 45.3 °F 44.1 °F 29.69 in WSW 1.6 mph 4 mph 95% 0.02 in 32 W/m2
08:19 45.3 °F 44.1 °F 29.69 in WSW 3.6 mph 5 mph 95% 0.02 in 40 W/m2
08:24 45.4 °F 44.1 °F 29.69 in WSW 2.4 mph 4 mph 95% 0.02 in 30 W/m2
08:29 45.5 °F 44.2 °F 29.69 in WSW 1.1 mph 4 mph 95% 0.02 in 30 W/m2
08:34 45.6 °F 44.3 °F 29.69 in WSW 1.6 mph 4 mph 95% 0.03 in 33 W/m2
08:39 45.6 °F 44.3 °F 29.69 in WSW 0.5 mph 2 mph 95% 0.04 in 44 W/m2
08:44 45.7 °F 44.4 °F 29.68 in Calm   1 mph 95% 0.05 in 44 W/m2
08:49 45.7 °F 44.4 °F 29.68 in WSW 0.2 mph 1 mph 95% 0.05 in 32 W/m2
08:54 45.7 °F 44.4 °F 29.68 in WSW 0.7 mph 2 mph 95% 0.05 in 30 W/m2
08:59 45.7 °F 44.4 °F 29.68 in WSW 0.7 mph 2 mph 95% 0.05 in 37 W/m2
09:04 45.8 °F 44.4 °F 29.68 in Calm   2 mph 95% 0.05 in 46 W/m2
09:09 45.9 °F 44.4 °F 29.67 in Calm     95% 0.05 in 46 W/m2
09:14 45.9 °F 44.4 °F 29.68 in Calm     95% 0.05 in 42 W/m2
09:19 45.9 °F 44.4 °F 29.68 in Calm     95% 0.05 in 33 W/m2
09:24 46 °F 44.6 °F 29.68 in WSW 0.8 mph 3 mph 95% 0.04 in 56 W/m2
09:29 46 °F 44.6 °F 29.68 in WSW 1.4 mph 3 mph 95% 0.04 in 90 W/m2
09:34 46 °F 44.6 °F 29.68 in WSW 1.3 mph 3 mph 95% 0.03 in 98 W/m2
09:39 46.2 °F 44.8 °F 29.68 in WSW 1.6 mph 3 mph 95% 0.02 in 91 W/m2
09:44 46.2 °F 44.8 °F 29.68 in WSW 1.2 mph 3 mph 95% 0.01 in 95 W/m2
09:49 46.2 °F 44.8 °F 29.67 in WSW 0.9 mph 3 mph 95% 0.01 in 125 W/m2
09:54 46.2 °F 44.8 °F 29.67 in WSW 1.2 mph 4 mph 95% 0.01 in 120 W/m2
09:59 46.2 °F 44.8 °F 29.67 in WSW 2.1 mph 4 mph 95% 0.01 in 120 W/m2
10:04 46.5 °F 45.1 °F 29.67 in WSW 1.6 mph 4 mph 95% 0.01 in 123 W/m2
10:09 46.6 °F 45.1 °F 29.67 in WSW 2.9 mph 5 mph 95% 0.01 in 118 W/m2
10:14 46.6 °F 45.1 °F 29.67 in WSW 2.3 mph 5 mph 95% 0.01 in 90 W/m2
10:19 46.5 °F 45.1 °F 29.67 in West 2.5 mph 5 mph 95% 0.01 in 111 W/m2
10:24 46.4 °F 45 °F 29.67 in West 3.8 mph 8 mph 95% 0.01 in 120 W/m2
10:29 46.3 °F 44.9 °F 29.67 in West 4.5 mph 8 mph 95% 0.01 in 83 W/m2
10:34 46.4 °F 45 °F 29.67 in WNW 5 mph 9 mph 95% 0.01 in 67 W/m2
10:39 46.2 °F 44.8 °F 29.67 in West 4.3 mph 9 mph 95% 0.01 in 172 W/m2
10:44 46.3 °F 44.9 °F 29.67 in West 1.3 mph 5 mph 95% 0.01 in 200 W/m2
10:49 46.3 °F 44.9 °F 29.67 in WNW 2.5 mph 5 mph 95% 0.01 in 179 W/m2
10:54 45.8 °F 44.4 °F 29.67 in WNW 4.4 mph 8 mph 95% 0.00 in 181 W/m2
10:59 45.7 °F 44.4 °F 29.67 in WNW 5.6 mph 10 mph 95% 0.00 in 181 W/m2
11:04 45.7 °F 44.4 °F 29.68 in NW 5.5 mph 11 mph 95% 0.00 in 141 W/m2
11:09 45.8 °F 44.4 °F 29.68 in WNW 3.4 mph 9 mph 95% 0.00 in 84 W/m2
11:14 45.7 °F 44.4 °F 29.67 in WNW 4.1 mph 10 mph 95% 0.01 in 83 W/m2
11:19 45.4 °F 44.2 °F 29.67 in WNW 4.6 mph 8 mph 95% 0.01 in 113 W/m2
11:24 45.3 °F 43.8 °F 29.67 in NW 1.6 mph 7 mph 94.2% 0.01 in 174 W/m2
11:29 45.5 °F 43.9 °F 29.67 in WNW 3.2 mph 7 mph 94% 0.01 in 183 W/m2
11:34 45.7 °F 44.1 °F 29.67 in WNW 2.7 mph 6 mph 94% 0.01 in 169 W/m2
11:39 45.9 °F 44.1 °F 29.67 in WNW 3.1 mph 7 mph 93.8% 0.01 in 158 W/m2
11:44 45.9 °F 44 °F 29.67 in WNW 3.7 mph 9 mph 93% 0.01 in 158 W/m2
11:49 45.9 °F 43.9 °F 29.67 in WNW 1.6 mph 6 mph 93% 0.01 in 155 W/m2
11:54 46 °F 44 °F 29.67 in WNW 3.2 mph 5 mph 92.6% 0.01 in 165 W/m2
11:59 46 °F 43.9 °F 29.67 in WNW 2.7 mph 5 mph 92% 0.01 in 169 W/m2
12:04 46.2 °F 44.1 °F 29.67 in WNW 2 mph 6 mph 92% 0.01 in 204 W/m2
12:09 46.2 °F 43.8 °F 29.67 in WNW 4.2 mph 8 mph 91.2% 0.01 in 206 W/m2
12:14 46.5 °F 44 °F 29.67 in West 1.5 mph 6 mph 91% 0.00 in 156 W/m2
12:19 46.7 °F 44 °F 29.67 in West 2.8 mph 6 mph 90% 0.00 in 121 W/m2
12:24 46.6 °F 43.7 °F 29.67 in WNW 3.8 mph 6 mph 89.6% 0.00 in 116 W/m2
12:29 46.6 °F 43.5 °F 29.67 in WNW 2.8 mph 6 mph 89% 0.00 in 97 W/m2
12:34 46.6 °F 43.5 °F 29.66 in WNW 5.4 mph 8 mph 89% 0.00 in 109 W/m2
12:39 46.3 °F 42.9 °F 29.66 in NW 3.6 mph 7 mph 88% 0.00 in 104 W/m2
12:44 46.2 °F 42.7 °F 29.67 in West 3.5 mph 8 mph 87.6% 0.00 in 98 W/m2
12:49 46.1 °F 42.5 °F 29.67 in West 3.5 mph 10 mph 87% 0.00 in 91 W/m2
12:54 46 °F 42.1 °F 29.67 in West 4 mph 8 mph 86% 0.00 in 104 W/m2
12:59 46 °F 42.1 °F 29.66 in West 4.2 mph 9 mph 86% 0.00 in 116 W/m2
13:04 46 °F 41.9 °F 29.66 in West 4.3 mph 9 mph 85.6% 0.00 in 120 W/m2
13:09 46 °F 41.7 °F 29.66 in West 3.2 mph 8 mph 85% 0.00 in 139 W/m2
13:14 46 °F 41.7 °F 29.66 in West 5.2 mph 8 mph 85% 0.00 in 139 W/m2
13:19 46.1 °F 41.7 °F 29.66 in West 4.3 mph 8 mph 84.2% 0.00 in 130 W/m2
13:24 46.1 °F 41.7 °F 29.66 in WNW 4.4 mph 8 mph 84.4% 0.00 in 120 W/m2
13:29 46.2 °F 41.7 °F 29.66 in West 3.7 mph 6 mph 84% 0.00 in 116 W/m2
13:34 46.2 °F 41.7 °F 29.66 in West 4.5 mph 9 mph 84% 0.00 in 107 W/m2
13:39 46 °F 41.2 °F 29.65 in West 3.2 mph 10 mph 83% 0.00 in 105 W/m2
13:44 46 °F 40.9 °F 29.65 in West 3.4 mph 7 mph 82.2% 0.00 in 125 W/m2
13:49 46 °F 40.8 °F 29.65 in West 4.5 mph 7 mph 82% 0.00 in 127 W/m2
13:54 46.1 °F 40.9 °F 29.65 in West 3.2 mph 7 mph 82% 0.00 in 149 W/m2
13:59 46.2 °F 41 °F 29.65 in West 2.4 mph 6 mph 82% 0.00 in 163 W/m2
14:04 46.4 °F 41 °F 29.65 in West 3.2 mph 6 mph 81.6% 0.00 in 176 W/m2
14:09 46.4 °F 40.9 °F 29.65 in WSW 2.9 mph 6 mph 81.2% 0.00 in 176 W/m2
14:14 46.4 °F 40.8 °F 29.65 in West 4 mph 7 mph 81% 0.00 in 200 W/m2
14:19 46.6 °F 41 °F 29.65 in West 3.5 mph 5 mph 81% 0.00 in 176 W/m2
14:24 46.7 °F 41.2 °F 29.65 in West 3.7 mph 7 mph 81.4% 0.00 in 225 W/m2
14:29 46.6 °F 41.1 °F 29.65 in West 4.5 mph 8 mph 81.2% 0.00 in 199 W/m2
14:34 46.6 °F 41 °F 29.64 in West 4 mph 8 mph 81% 0.00 in 197 W/m2
14:39 46.8 °F 41.2 °F 29.64 in West 3.7 mph 8 mph 81% 0.00 in 178 W/m2
14:44 46.6 °F 41 °F 29.64 in West 4.5 mph 8 mph 81% 0.00 in 125 W/m2
14:49 46.5 °F 40.8 °F 29.64 in West 4.5 mph 9 mph 80.6% 0.00 in 158 W/m2
14:54 46.6 °F 40.8 °F 29.64 in WNW 3.3 mph 8 mph 80% 0.00 in 155 W/m2
14:59 46.5 °F 40.6 °F 29.64 in West 3.7 mph 8 mph 79.6% 0.00 in 123 W/m2
15:04 46.4 °F 40.3 °F 29.64 in West 4.8 mph 9 mph 79% 0.00 in 105 W/m2
15:09 46.2 °F 40.1 °F 29.64 in West 5.1 mph 9 mph 79% 0.00 in 98 W/m2
15:14 46.2 °F 40.1 °F 29.64 in West 5.5 mph 9 mph 79% 0.00 in 98 W/m2
15:19 46.2 °F 40.1 °F 29.64 in West 4.4 mph 10 mph 79% 0.00 in 105 W/m2
15:24 46.2 °F 40.1 °F 29.64 in WSW 5.7 mph 9 mph 79% 0.00 in 98 W/m2
15:29 46.2 °F 40.1 °F 29.63 in West 4.1 mph 8 mph 79% 0.00 in 105 W/m2
15:34 46.1 °F 40 °F 29.63 in West 4.9 mph 9 mph 79% 0.00 in 105 W/m2
15:39 46 °F 39.9 °F 29.63 in West 6.2 mph 11 mph 79% 0.00 in 100 W/m2
15:44 46 °F 39.9 °F 29.63 in West 5.8 mph 11 mph 79% 0.00 in 111 W/m2
15:49 46.2 °F 40.3 °F 29.63 in West 3.6 mph 7 mph 79.6% 0.00 in 116 W/m2
15:54 46.2 °F 40.5 °F 29.63 in West 5.3 mph 8 mph 80% 0.00 in 111 W/m2
15:59 46.2 °F 40.5 °F 29.63 in West 6.8 mph 11 mph 80% 0.00 in 111 W/m2
16:04 46.1 °F 40.4 °F 29.63 in WSW 5.6 mph 11 mph 80% 0.00 in 100 W/m2
16:09 46 °F 40.3 °F 29.63 in West 6.8 mph 13 mph 80% 0.00 in 81 W/m2
16:14 46 °F 40.5 °F 29.64 in West 6 mph 11 mph 81% 0.00 in 81 W/m2
16:19 45.9 °F 40.3 °F 29.64 in West 5.2 mph 14 mph 81% 0.00 in 77 W/m2
16:24 45.7 °F 40.1 °F 29.63 in West 6.8 mph 12 mph 81% 0.00 in 72 W/m2
16:29 45.7 °F 40.1 °F 29.63 in West 6.9 mph 12 mph 81% 0.00 in 72 W/m2
16:33 45.7 °F 40.1 °F 29.63 in West 6.9 mph 7 mph 81% 0.00 in 72 W/m2
16:39 45.6 °F 40.1 °F 29.63 in West 7.6 mph 12 mph 81% 0.00 in 72 W/m2
16:44 45.5 °F 40.1 °F 29.63 in West 6.4 mph 10 mph 81% 0.00 in 46 W/m2
16:49 45.3 °F 39.9 °F 29.63 in West 4.7 mph 9 mph 81% 0.00 in 37 W/m2
16:54 45.3 °F 40.1 °F 29.64 in West 6 mph 11 mph 82% 0.00 in 39 W/m2
16:59 45.2 °F 40 °F 29.64 in West 5.2 mph 11 mph 82% 0.00 in 32 W/m2
17:04 45.1 °F 40.1 °F 29.64 in WSW 6 mph 12 mph 82.6% 0.00 in 25 W/m2
17:09 45.1 °F 40.2 °F 29.64 in West 7.2 mph 13 mph 83% 0.00 in 25 W/m2
17:14 44.9 °F 40 °F 29.63 in West 6.8 mph 15 mph 83% 0.00 in 19 W/m2
17:19 44.6 °F 39.7 °F 29.63 in WSW 5.2 mph 10 mph 83% 0.00 in 12 W/m2
17:24 44.2 °F 39.2 °F 29.63 in West 6.2 mph 11 mph 82.4% 0.00 in 7 W/m2
17:29 43.9 °F 38.7 °F 29.63 in West 4.1 mph 9 mph 81.8% 0.00 in 7 W/m2
17:34 43.9 °F 38.5 °F 29.63 in West 5.3 mph 8 mph 81% 0.00 in 5 W/m2
17:39 43.7 °F 38.3 °F 29.63 in West 6.4 mph 12 mph 81% 0.00 in 5 W/m2
17:44 43.4 °F 37.7 °F 29.63 in West 6.8 mph 11 mph 80% 0.00 in 0 W/m2
17:49 43.2 °F 37.8 °F 29.64 in West 5.8 mph 12 mph 80.8% 0.00 in 0 W/m2
17:54 43.1 °F 37.7 °F 29.64 in West 8.6 mph 14 mph 81% 0.00 in 0 W/m2
17:59 43 °F 37.8 °F 29.64 in West 4.7 mph 14 mph 81.8% 0.00 in 0 W/m2
18:04 42.7 °F 37.8 °F 29.63 in West 4.4 mph 11 mph 82.2% 0.00 in 0 W/m2
18:09 42.6 °F 37.8 °F 29.63 in WSW 6.2 mph 13 mph 83% 0.00 in 0 W/m2
18:14 42.5 °F 37.8 °F 29.63 in West 4.2 mph 8 mph 83.4% 0.00 in 0 W/m2
18:19 42.4 °F 37.9 °F 29.63 in West 4.3 mph 10 mph 84% 0.00 in 0 W/m2
18:24 42.3 °F 37.8 °F 29.63 in West 5.9 mph 9 mph 84% 0.00 in 0 W/m2
18:29 42.3 °F 37.8 °F 29.63 in West 3.4 mph 6 mph 84% 0.00 in 0 W/m2
18:34 42.1 °F 37.6 °F 29.63 in West 4.5 mph 9 mph 84% 0.00 in 0 W/m2
18:39 42.1 °F 37.6 °F 29.63 in West 4.7 mph 9 mph 84% 0.00 in 0 W/m2
18:44 42.1 °F 37.6 °F 29.63 in WSW 4 mph 11 mph 84% 0.00 in 0 W/m2
18:49 42 °F 37.5 °F 29.63 in West 3.7 mph 6 mph 84% 0.00 in 0 W/m2
18:54 41.8 °F 37.3 °F 29.63 in West 2.1 mph 8 mph 84% 0.00 in 0 W/m2
18:59 41.8 °F 37.3 °F 29.63 in West 2.9 mph 6 mph 84% 0.00 in 0 W/m2
19:04 41.7 °F 37.2 °F 29.63 in West 2.5 mph 5 mph 84% 0.00 in 0 W/m2
19:09 41.5 °F 37 °F 29.63 in WSW 3 mph 6 mph 84% 0.00 in 0 W/m2
19:14 41.5 °F 37 °F 29.63 in WSW 2.4 mph 5 mph 84% 0.00 in 0 W/m2
19:19 41.5 °F 37 °F 29.63 in WSW 2.8 mph 5 mph 84% 0.00 in 0 W/m2
19:24 41.4 °F 36.9 °F 29.63 in WSW 2.1 mph 5 mph 84% 0.00 in 0 W/m2
19:29 41.3 °F 37.1 °F 29.63 in WSW 1.8 mph 5 mph 84.8% 0.00 in 0 W/m2
19:34 41.2 °F 37 °F 29.62 in WSW 3.2 mph 5 mph 85% 0.00 in 0 W/m2
19:39 41.1 °F 37 °F 29.63 in WSW 3.7 mph 5 mph 85% 0.00 in 0 W/m2
19:44 41 °F 36.9 °F 29.62 in WSW 4 mph 6 mph 85% 0.00 in 0 W/m2
19:49 41 °F 37.1 °F 29.62 in WSW 4.3 mph 7 mph 85.6% 0.00 in 0 W/m2
19:54 41 °F 37.2 °F 29.62 in WSW 2.9 mph 9 mph 86% 0.00 in 0 W/m2
19:59 40.8 °F 37 °F 29.62 in West 4.2 mph 7 mph 86% 0.00 in 0 W/m2
20:04 40.8 °F 37 °F 29.62 in WSW 2.5 mph 8 mph 86% 0.00 in 0 W/m2
20:09 40.6 °F 37 °F 29.62 in West 2.8 mph 8 mph 86.6% 0.00 in 0 W/m2
20:14 40.6 °F 37 °F 29.62 in WSW 3.2 mph 6 mph 87% 0.00 in 0 W/m2
20:19 40.6 °F 37 °F 29.62 in SW 2.4 mph 6 mph 87% 0.00 in 0 W/m2
20:24 40.5 °F 36.9 °F 29.62 in SW 2.5 mph 5 mph 87% 0.00 in 0 W/m2
20:29 40.5 °F 36.9 °F 29.62 in WSW 1.5 mph 5 mph 87% 0.00 in 0 W/m2
20:34 40.5 °F 37 °F 29.62 in WSW 1.6 mph 5 mph 87.4% 0.00 in 0 W/m2
20:39 40.4 °F 37.1 °F 29.62 in WSW 2.8 mph 5 mph 88% 0.00 in 0 W/m2
20:44 40.3 °F 37 °F 29.62 in WSW 2.5 mph 5 mph 88% 0.00 in 0 W/m2
20:49 40 °F 36.8 °F 29.62 in WSW 2 mph 4 mph 88% 0.00 in 0 W/m2
20:54 39.8 °F 36.6 °F 29.61 in WSW 3.3 mph 5 mph 88% 0.00 in 0 W/m2
20:59 39.7 °F 36.5 °F 29.61 in WSW 2.5 mph 6 mph 88% 0.00 in 0 W/m2
21:04 39.6 °F 36.3 °F 29.61 in WSW 2 mph 5 mph 88% 0.00 in 0 W/m2
21:09 39.5 °F 36.2 °F 29.61 in WSW 2.5 mph 5 mph 88% 0.00 in 0 W/m2
21:14 39.4 °F 36.1 °F 29.61 in West 2.3 mph 8 mph 88% 0.00 in 0 W/m2
21:19 39.2 °F 36 °F 29.61 in WSW 3.2 mph 8 mph 88% 0.00 in 0 W/m2
21:24 39.1 °F 35.8 °F 29.61 in WSW 3.2 mph 9 mph 87.6% 0.00 in 0 W/m2
21:29 39 °F 35.4 °F 29.61 in SW 3.9 mph 9 mph 87% 0.00 in 0 W/m2
21:34 39 °F 35.4 °F 29.61 in SW 3.9 mph 9 mph 87% 0.00 in 0 W/m2
21:39 39 °F 35.4 °F 29.60 in WSW 4.4 mph 8 mph 87% 0.00 in 0 W/m2
21:44 39 °F 35.4 °F 29.61 in SW 4.2 mph 9 mph 87% 0.00 in 0 W/m2
21:49 39 °F 35.3 °F 29.60 in SW 2.3 mph 6 mph 86.4% 0.00 in 0 W/m2
21:54 39 °F 35.2 °F 29.60 in SW 3.6 mph 8 mph 86% 0.00 in 0 W/m2
21:59 39 °F 35.2 °F 29.60 in SW 3.5 mph 6 mph 86% 0.00 in 0 W/m2
22:04 38.8 °F 35.1 °F 29.60 in SSW 2.6 mph 6 mph 86% 0.00 in 0 W/m2
22:09 38.8 °F 35.1 °F 29.60 in SSW 1.9 mph 5 mph 86% 0.00 in 0 W/m2
22:14 38.7 °F 34.9 °F 29.59 in SSW 2 mph 4 mph 86% 0.00 in 0 W/m2
22:19 38.6 °F 34.8 °F 29.59 in South 1.8 mph 6 mph 86% 0.00 in 0 W/m2
22:24 38.5 °F 34.7 °F 29.59 in SSW 2.3 mph 7 mph 86% 0.00 in 0 W/m2
22:29 38.3 °F 34.5 °F 29.59 in SSW 3.7 mph 8 mph 86% 0.00 in 0 W/m2
22:34 38.3 °F 34.5 °F 29.59 in SSW 3.7 mph 7 mph 86% 0.00 in 0 W/m2
22:39 38.1 °F 34.3 °F 29.59 in South 3.1 mph 9 mph 86% 0.00 in 0 W/m2
22:44 38.1 °F 34.3 °F 29.59 in South 4 mph 9 mph 86% 0.00 in 0 W/m2
22:49 37.9 °F 34.2 °F 29.59 in SSW 4 mph 10 mph 86% 0.00 in 0 W/m2
22:54 37.9 °F 34.3 °F 29.59 in SSW 2.5 mph 7 mph 86.6% 0.00 in 0 W/m2
22:59 37.9 °F 34.2 °F 29.58 in SW 3.3 mph 7 mph 86.4% 0.00 in 0 W/m2
23:04 37.8 °F 34.2 °F 29.58 in SSW 2.9 mph 6 mph 87% 0.00 in 0 W/m2
23:09 37.8 °F 34.2 °F 29.58 in SSW 5.6 mph 9 mph 87% 0.00 in 0 W/m2
23:14 37.8 °F 34.2 °F 29.58 in SSW 4.7 mph 7 mph 87% 0.00 in 0 W/m2
23:19 37.9 °F 34.3 °F 29.58 in South 4.8 mph 11 mph 87% 0.00 in 0 W/m2
23:24 37.9 °F 34.3 °F 29.57 in SSW 6 mph 11 mph 87% 0.00 in 0 W/m2
23:29 37.9 °F 34.3 °F 29.57 in SSW 5.3 mph 13 mph 87% 0.00 in 0 W/m2
23:34 37.8 °F 34.2 °F 29.57 in South 3.5 mph 7 mph 87% 0.00 in 0 W/m2
23:39 37.8 °F 34.2 °F 29.57 in SSW 4.7 mph 10 mph 87% 0.00 in 0 W/m2
23:44 37.6 °F 34 °F 29.57 in SSW 5.9 mph 10 mph 87% 0.00 in 0 W/m2
23:49 37.6 °F 34 °F 29.57 in South 4.9 mph 10 mph 87% 0.00 in 0 W/m2
23:54 37.5 °F 33.9 °F 29.57 in SSW 5.6 mph 10 mph 87% 0.00 in 0 W/m2
23:59 37.3 °F 33.8 °F 29.56 in SSW 5.6 mph 10 mph 87% 0.00 in 0 W/m2
Bath Spa Weather
Compliments of Weather Underground - 2 mb